Terminal Aerodrome Forecast
Issued by NWS

Home | Current Version | Previous Version | Text Only | Print | Product List | Glossary Off
Versions: 1 2 3 4 5 6 7 8 9 10 11 12 13 14 15 16 17 18 19 20 21 22 23 24

000
FTUS43 KMPX 191726
TAFRWF
TAF
KRWF 191726Z 1918/2018 15008KT 2SM BR OVC003
     FM192200 16009KT 6SM BR OVC006
     FM200400 16007KT 1/2SM FG VV002=

USA.gov is the U.S. government's official web portal to all federal, state and local government web resources and services.